Terminal Aerodrome Forecast
Issued by NWS

Home | Current Version | Previous Version | Text Only | Print | Product List | Glossary On
Versions: 1 2 3 4 5 6 7 8 9 10 11 12 13 14 15 16 17 18 19 20 21 22 23 24 25 26 27 28
403
FTUS46 KLOX 261727
TAFLGB
TAF
KLGB 261727Z 2618/2718 VRB03KT P6SM BKN025
     FM262000 20008KT P6SM SCT150
     FM262300 29008KT P6SM BKN150
     FM270500 VRB03KT P6SM BKN120
     FM271000 VRB03KT P6SM BKN025 BKN120
     FM271700 VRB03KT P6SM SCT150=

USA.gov is the U.S. government's official web portal to all federal, state and local government web resources and services.